Time;durP1;ratioP1;P1;durP2;ratioP2;P2;SDS_P1;SDS_P2;PMS_P1;PMS_P2;Temp;Humidity;BMP_temperature;BMP_pressure;BME280_temperature;BME280_humidity;BME280_pressure;Samples;Min_cycle;Max_cycle;Signal;HPM_P1;HPM_P2
2022/05/02 00:00:44;;;;;;;1.50;1.10;;;;;;;5.47;63.21;101001.16;5106151;28;20035;-72
2022/05/02 00:03:10;;;;;;;1.58;1.02;;;;;;;5.51;62.87;100998.78;5108083;28;20036;-71
2022/05/02 00:05:36;;;;;;;2.25;1.33;;;;;;;5.52;63.28;101005.88;5102247;28;20058;-71
2022/05/02 00:08:02;;;;;;;1.70;1.10;;;;;;;5.48;62.88;101005.53;5095739;27;20089;-72
2022/05/02 00:10:28;;;;;;;1.30;1.02;;;;;;;5.51;63.46;101002.34;5097195;28;20040;-71
2022/05/02 00:12:54;;;;;;;1.40;1.30;;;;;;;5.50;62.74;100995.25;5100013;28;20093;-71
2022/05/02 00:15:19;;;;;;;1.48;1.13;;;;;;;5.53;62.91;100996.66;5107936;28;20036;-72
2022/05/02 00:17:58;;;;;;;2.97;0.90;;;;;;;5.52;63.26;100995.00;5100171;28;20497;-71
2022/05/02 00:20:32;;;;;;;1.95;1.10;;;;;;;5.47;62.70;100990.28;5104062;28;20036;-71
2022/05/02 00:23:00;;;;;;;2.13;1.05;;;;;;;5.48;62.93;100991.94;5099396;28;20104;-72
2022/05/02 00:25:26;;;;;;;1.48;1.00;;;;;;;5.47;62.95;100992.19;5104483;28;20043;-71
2022/05/02 00:27:51;;;;;;;2.08;1.42;;;;;;;5.45;62.81;100990.53;5098187;28;20387;-71
2022/05/02 00:30:17;;;;;;;1.40;0.82;;;;;;;5.46;63.06;100994.06;5099111;28;20051;-71
2022/05/02 00:32:44;;;;;;;1.30;1.02;;;;;;;5.45;63.10;100993.25;5096138;28;20032;-71
2022/05/02 00:35:09;;;;;;;2.75;1.23;;;;;;;5.45;63.20;100992.41;5096338;28;20047;-71
2022/05/02 00:37:39;;;;;;;1.23;1.00;;;;;;;5.46;63.11;100988.63;5091261;28;20032;-71
2022/05/02 00:40:07;;;;;;;1.38;0.98;;;;;;;5.47;63.06;100984.84;5108078;27;20074;-72
2022/05/02 00:42:32;;;;;;;1.77;1.00;;;;;;;5.42;62.94;100993.72;5097305;28;20558;-71
2022/05/02 00:44:58;;;;;;;1.55;0.98;;;;;;;5.40;62.98;100984.97;5091343;28;20161;-71
2022/05/02 00:47:24;;;;;;;1.48;0.85;;;;;;;5.42;62.80;100992.91;5093425;28;20141;-71
2022/05/02 00:49:50;;;;;;;2.13;1.10;;;;;;;5.33;63.04;100988.88;5093831;28;20455;-72
2022/05/02 00:52:17;;;;;;;3.28;0.85;;;;;;;5.28;63.14;100994.22;5093014;28;20044;-71
2022/05/02 00:54:44;;;;;;;1.40;0.80;;;;;;;5.22;63.31;100992.44;5103899;28;20535;-72
2022/05/02 00:57:14;;;;;;;1.13;0.90;;;;;;;5.17;63.29;100995.03;5094984;28;20044;-71
2022/05/02 00:59:40;;;;;;;1.25;0.85;;;;;;;5.14;63.36;100991.72;5107423;28;20104;-71
2022/05/02 01:02:08;;;;;;;1.30;1.15;;;;;;;5.09;63.56;100994.34;5079477;28;20036;-71
2022/05/02 01:04:34;;;;;;;1.70;1.00;;;;;;;5.05;63.60;100987.72;5094379;28;20035;-72
2022/05/02 01:07:09;;;;;;;2.35;0.90;;;;;;;4.99;64.05;100987.81;5090046;28;20047;-71
2022/05/02 01:09:44;;;;;;;2.47;1.10;;;;;;;4.93;64.37;100983.31;5101103;28;20097;-71
2022/05/02 01:12:17;;;;;;;1.80;0.95;;;;;;;4.92;64.27;100976.22;5106353;28;20405;-71
2022/05/02 01:14:46;;;;;;;2.10;0.80;;;;;;;4.91;64.17;100972.69;5109816;28;20058;-71
2022/05/02 01:17:14;;;;;;;2.50;0.70;;;;;;;4.86;64.58;100964.41;5097248;28;20036;-72
2022/05/02 01:19:40;;;;;;;1.73;0.90;;;;;;;4.83;64.71;100976.56;5100483;28;20032;-71
2022/05/02 01:22:06;;;;;;;1.83;0.80;;;;;;;4.79;64.56;100980.00;5105259;28;20042;-71
2022/05/02 01:24:33;;;;;;;2.17;0.82;;;;;;;4.79;64.44;100974.56;5093936;28;20134;-71
2022/05/02 01:26:59;;;;;;;0.80;0.70;;;;;;;4.78;64.94;100972.91;5103853;28;20046;-71
2022/05/02 01:29:24;;;;;;;2.58;1.00;;;;;;;4.75;64.41;100965.22;5097269;28;20036;-71
2022/05/02 01:31:53;;;;;;;2.03;0.85;;;;;;;4.66;64.80;100967.44;5093179;28;20064;-71
2022/05/02 01:34:18;;;;;;;2.33;0.90;;;;;;;4.64;64.76;100964.13;5095320;28;20039;-71
2022/05/02 01:36:44;;;;;;;1.00;0.90;;;;;;;4.60;64.40;100960.22;5091359;28;20044;-71
2022/05/02 01:39:10;;;;;;;1.52;1.00;;;;;;;4.54;64.90;100953.03;5101927;28;20053;-71
2022/05/02 01:41:35;;;;;;;1.70;0.80;;;;;;;4.50;64.50;100946.38;5090757;28;20040;-71
2022/05/02 01:44:01;;;;;;;1.00;0.73;;;;;;;4.44;64.90;100942.72;5104980;28;20036;-71
2022/05/02 01:46:27;;;;;;;1.83;1.00;;;;;;;4.44;65.15;100956.31;5090207;28;20078;-71
2022/05/02 01:48:52;;;;;;;2.85;0.85;;;;;;;4.42;65.08;100954.88;5094372;28;20032;-71
2022/05/02 01:51:18;;;;;;;1.83;0.95;;;;;;;4.40;65.28;100948.84;5096023;28;20067;-71
2022/05/02 01:53:43;;;;;;;2.75;1.00;;;;;;;4.42;65.18;100950.28;5106021;28;20036;-72
2022/05/02 01:56:09;;;;;;;3.25;0.90;;;;;;;4.45;64.65;100955.25;5092140;28;20498;-72
2022/05/02 01:58:35;;;;;;;1.40;0.75;;;;;;;4.42;65.02;100944.84;5100280;28;20036;-72
2022/05/02 02:01:00;;;;;;;0.93;0.63;;;;;;;4.38;64.92;100942.84;5093214;28;20130;-72
2022/05/02 02:03:26;;;;;;;1.23;1.00;;;;;;;4.36;64.88;100943.06;5100892;28;20050;-72
2022/05/02 02:05:52;;;;;;;0.90;0.80;;;;;;;4.36;64.95;100947.66;5092669;28;20104;-72
2022/05/02 02:08:23;;;;;;;1.50;1.00;;;;;;;4.42;65.23;100942.13;5102734;28;20036;-72
2022/05/02 02:10:51;;;;;;;1.02;0.90;;;;;;;4.49;64.90;100944.72;5099342;28;20068;-72
2022/05/02 02:13:17;;;;;;;3.03;1.20;;;;;;;4.52;64.74;100942.41;5095061;28;20032;-72
2022/05/02 02:15:43;;;;;;;2.05;1.02;;;;;;;4.58;64.79;100939.78;5099473;28;20028;-72
2022/05/02 02:18:09;;;;;;;2.72;0.70;;;;;;;4.70;64.62;100940.66;5100521;28;20180;-71
2022/05/02 02:20:35;;;;;;;1.48;1.10;;;;;;;4.89;63.98;100931.31;5089401;28;20036;-72
2022/05/02 02:23:01;;;;;;;2.78;0.93;;;;;;;4.96;63.82;100926.56;5092466;28;20173;-71
2022/05/02 02:25:26;;;;;;;4.03;0.98;;;;;;;5.07;64.28;100931.19;5089211;28;20143;-72
2022/05/02 02:27:53;;;;;;;1.75;0.90;;;;;;;5.13;63.72;100930.22;5104634;28;20039;-72
2022/05/02 02:30:19;;;;;;;1.58;0.95;;;;;;;5.08;62.78;100930.13;5100676;28;20036;-72
2022/05/02 02:32:45;;;;;;;1.73;0.85;;;;;;;5.04;63.48;100925.41;5094833;28;20043;-72
2022/05/02 02:35:11;;;;;;;3.22;0.80;;;;;;;5.01;63.14;100923.97;5092566;28;20092;-71
2022/05/02 02:37:36;;;;;;;2.15;0.70;;;;;;;4.93;63.29;100921.59;5097848;28;20035;-71
2022/05/02 02:40:03;;;;;;;1.58;0.60;;;;;;;4.85;63.55;100922.78;5095928;28;20080;-71
2022/05/02 02:42:28;;;;;;;1.98;0.90;;;;;;;4.83;63.43;100929.53;5074285;28;20139;-71
2022/05/02 02:44:54;;;;;;;0.70;0.70;;;;;;;4.77;63.36;100922.31;5093647;28;20131;-72
2022/05/02 02:47:19;;;;;;;0.60;0.55;;;;;;;4.70;63.83;100929.78;5095305;28;20080;-71
2022/05/02 02:49:45;;;;;;;0.60;0.60;;;;;;;4.70;64.30;100935.22;5092580;28;20036;-71
2022/05/02 02:52:11;;;;;;;1.40;0.80;;;;;;;4.89;63.90;100934.03;5096858;28;20115;-72
2022/05/02 02:54:36;;;;;;;1.13;0.82;;;;;;;5.22;64.02;100924.44;5094831;28;20040;-72
2022/05/02 02:57:02;;;;;;;0.70;0.70;;;;;;;5.56;62.67;100920.81;5097102;28;20032;-70
2022/05/02 02:59:28;;;;;;;1.35;0.80;;;;;;;5.92;61.63;100918.81;5101076;28;20036;-70
2022/05/02 03:01:55;;;;;;;2.83;0.70;;;;;;;6.33;61.10;100914.94;5097566;28;20040;-72
2022/05/02 03:07:05;;;;;;;4.10;0.80;;;;;;;7.14;58.46;100912.66;5092304;28;20387;-72
2022/05/02 03:09:31;;;;;;;1.13;0.60;;;;;;;7.52;57.23;100919.97;5093404;28;20047;-71
2022/05/02 03:11:57;;;;;;;1.02;0.80;;;;;;;7.91;55.91;100912.50;5106003;28;20035;-71
2022/05/02 03:14:23;;;;;;;1.15;0.77;;;;;;;8.28;55.48;100911.78;5094220;28;20039;-70
2022/05/02 03:16:49;;;;;;;0.50;0.50;;;;;;;8.65;53.75;100909.13;5093793;28;20044;-71
2022/05/02 03:19:14;;;;;;;0.75;0.70;;;;;;;8.94;53.31;100909.59;5093302;28;20550;-71
2022/05/02 03:21:40;;;;;;;0.70;0.70;;;;;;;9.16;52.41;100907.53;5094755;28;20042;-71
2022/05/02 03:24:06;;;;;;;1.63;0.80;;;;;;;9.22;52.36;100914.72;5108873;28;20089;-71
2022/05/02 03:26:32;;;;;;;1.95;0.60;;;;;;;9.53;51.32;100915.66;5113226;28;20051;-70
2022/05/02 03:28:57;;;;;;;1.15;0.75;;;;;;;9.70;51.26;100918.19;5111440;28;20040;-71
2022/05/02 03:31:23;;;;;;;1.02;0.88;;;;;;;9.76;50.07;100911.66;5098466;28;20058;-70
2022/05/02 03:33:49;;;;;;;1.05;0.80;;;;;;;9.89;50.98;100905.69;5107601;28;20077;-71
2022/05/02 03:36:15;;;;;;;2.15;0.80;;;;;;;10.15;50.37;100908.47;5109021;28;20440;-71
2022/05/02 03:38:40;;;;;;;3.58;1.00;;;;;;;10.30;49.89;100913.19;5111370;27;20038;-70
2022/05/02 03:41:06;;;;;;;2.53;0.98;;;;;;;10.53;49.24;100909.91;5106095;27;20097;-71
2022/05/02 03:43:32;;;;;;;2.25;0.80;;;;;;;10.64;48.48;100900.59;5110290;27;20043;-70
2022/05/02 03:45:58;;;;;;;1.27;0.73;;;;;;;10.94;48.12;100899.72;5110514;28;20047;-70
2022/05/02 03:48:23;;;;;;;1.63;0.90;;;;;;;11.23;47.34;100910.91;5094582;28;20046;-69
2022/05/02 03:50:49;;;;;;;0.88;0.88;;;;;;;11.43;47.40;100912.78;5096279;28;20399;-70
2022/05/02 03:53:18;;;;;;;1.13;0.70;;;;;;;11.38;47.71;100905.38;5092246;28;20039;-72
2022/05/02 03:55:45;;;;;;;0.77;0.73;;;;;;;11.53;47.51;100912.75;5109549;27;20035;-70
2022/05/02 03:58:11;;;;;;;1.50;0.85;;;;;;;11.74;46.49;100914.28;5103428;27;20044;-72
2022/05/02 04:00:37;;;;;;;1.02;0.82;;;;;;;12.06;46.01;100904.81;5093953;28;20062;-72
2022/05/02 04:03:03;;;;;;;1.73;0.90;;;;;;;12.29;45.74;100904.09;5096475;28;20032;-72
2022/05/02 04:05:29;;;;;;;0.93;0.70;;;;;;;12.54;45.76;100908.59;5106492;28;20042;-71
2022/05/02 04:07:54;;;;;;;0.88;0.88;;;;;;;12.80;44.73;100909.19;5097748;28;20507;-71
2022/05/02 04:10:20;;;;;;;1.50;0.90;;;;;;;12.99;44.49;100907.34;5101748;28;20028;-71
2022/05/02 04:12:46;;;;;;;0.98;0.80;;;;;;;13.15;43.99;100904.44;5098288;28;20091;-71
2022/05/02 04:15:12;;;;;;;0.77;0.60;;;;;;;13.37;44.18;100899.28;5098926;28;20035;-70
2022/05/02 04:17:38;;;;;;;1.05;0.80;;;;;;;13.54;43.67;100907.91;5097310;28;20081;-71
2022/05/02 04:20:05;;;;;;;2.63;0.75;;;;;;;13.51;44.03;100904.88;5097907;28;20036;-71
2022/05/02 04:22:30;;;;;;;1.42;0.85;;;;;;;13.58;43.81;100908.13;5092729;28;20038;-70
2022/05/02 04:24:56;;;;;;;1.75;0.75;;;;;;;13.71;42.95;100901.03;5100189;28;20047;-70
2022/05/02 04:27:22;;;;;;;4.40;0.90;;;;;;;13.90;43.27;100904.69;5111560;28;20084;-70
2022/05/02 04:29:47;;;;;;;1.40;0.90;;;;;;;14.17;42.55;100898.47;5103361;28;20039;-70
2022/05/02 04:32:13;;;;;;;1.50;1.20;;;;;;;14.35;42.79;100888.53;5093514;28;20085;-70
2022/05/02 04:34:39;;;;;;;1.30;0.80;;;;;;;14.52;42.32;100891.59;5092833;28;20089;-70
2022/05/02 04:37:04;;;;;;;2.55;0.98;;;;;;;14.71;41.90;100881.34;5107579;28;20038;-71
2022/05/02 04:39:30;;;;;;;1.42;0.82;;;;;;;15.02;41.16;100875.25;5105352;28;20035;-71
2022/05/02 04:41:56;;;;;;;3.83;0.93;;;;;;;15.18;39.84;100873.03;5109730;28;20061;-71
2022/05/02 04:44:22;;;;;;;1.05;0.93;;;;;;;15.42;39.42;100878.34;5108528;28;20130;-71
2022/05/02 04:46:47;;;;;;;1.33;0.90;;;;;;;15.66;39.38;100879.81;5099365;28;20040;-71
2022/05/02 04:49:13;;;;;;;1.30;1.20;;;;;;;15.87;38.68;100871.88;5103076;28;20042;-71
2022/05/02 04:51:39;;;;;;;2.88;0.95;;;;;;;16.04;38.28;100875.94;5107990;27;20046;-71
2022/05/02 04:54:05;;;;;;;1.35;0.98;;;;;;;16.29;38.20;100876.16;5104006;28;20043;-71
2022/05/02 04:56:30;;;;;;;1.55;1.20;;;;;;;16.62;37.49;100877.84;5103685;28;20456;-71
2022/05/02 04:58:56;;;;;;;2.38;0.75;;;;;;;16.87;36.62;100874.47;5102057;28;20052;-71
2022/05/02 05:01:22;;;;;;;1.63;1.00;;;;;;;17.03;36.32;100875.69;5107642;28;20036;-70
2022/05/02 05:03:47;;;;;;;2.15;1.02;;;;;;;17.29;35.74;100870.25;5103682;27;20120;-70
2022/05/02 05:06:14;;;;;;;0.70;0.60;;;;;;;17.56;35.46;100874.75;5104455;28;20039;-70
2022/05/02 05:08:40;;;;;;;2.38;1.05;;;;;;;17.84;34.88;100874.50;5109753;28;20046;-71
2022/05/02 05:11:24;;;;;;;1.63;0.93;;;;;;;18.03;34.35;100863.91;5101096;28;20060;-71
2022/05/02 05:16:20;;;;;;;1.30;0.90;;;;;;;18.15;34.61;100875.19;5107575;28;20062;-71
2022/05/02 05:16:47;;;;;;;2.95;0.80;;;;;;;18.30;33.69;100868.34;5101546;28;20042;-71
2022/05/02 05:19:38;;;;;;;1.00;0.90;;;;;;;18.43;33.41;100874.88;5103581;28;20032;-71
2022/05/02 05:22:38;;;;;;;1.00;0.77;;;;;;;18.42;32.98;100867.69;5108845;28;20039;-71
2022/05/02 05:25:22;;;;;;;0.82;0.80;;;;;;;18.33;33.22;100856.56;5083248;28;20539;-70
2022/05/02 05:27:53;;;;;;;2.35;0.98;;;;;;;18.45;32.80;100861.47;5099872;28;20032;-71
2022/05/02 05:30:21;;;;;;;0.88;0.70;;;;;;;18.57;32.50;100864.38;5106093;28;20063;-70
2022/05/02 05:32:57;;;;;;;1.13;0.80;;;;;;;18.65;32.20;100855.25;5105293;28;20036;-71
2022/05/02 05:35:32;;;;;;;0.60;0.60;;;;;;;18.57;31.86;100853.25;5104715;28;20714;-71
2022/05/02 05:38:02;;;;;;;0.90;0.68;;;;;;;18.45;31.93;100859.50;5102936;28;20044;-71
2022/05/02 05:40:35;;;;;;;1.35;0.77;;;;;;;18.41;31.84;100849.38;5097047;28;20452;-71
2022/05/02 05:43:25;;;;;;;1.23;0.93;;;;;;;18.66;31.16;100851.31;5104909;28;20035;-71
2022/05/02 05:46:29;;;;;;;1.30;0.80;;;;;;;18.86;30.82;100845.03;5104939;28;20409;-71
2022/05/02 05:49:20;;;;;;;1.20;0.80;;;;;;;18.89;30.98;100843.56;5103909;28;20146;-71
2022/05/02 05:52:03;;;;;;;3.85;0.60;;;;;;;18.85;30.59;100854.53;5109915;28;20031;-71
2022/05/02 05:54:56;;;;;;;2.13;0.88;;;;;;;19.04;30.11;100843.03;5102638;28;20038;-71
2022/05/02 05:57:44;;;;;;;1.02;0.90;;;;;;;19.01;29.84;100828.97;5111541;28;20031;-71
2022/05/02 06:00:14;;;;;;;1.33;0.80;;;;;;;19.04;29.74;100843.03;5106177;28;20100;-70
2022/05/02 06:02:56;;;;;;;0.65;0.57;;;;;;;19.19;29.58;100836.91;5085092;28;20042;-72
2022/05/02 06:05:23;;;;;;;0.93;0.73;;;;;;;19.58;29.28;100827.38;5104691;28;20031;-71
2022/05/02 06:07:51;;;;;;;1.80;0.80;;;;;;;19.97;27.90;100825.34;5109339;27;20031;-72
2022/05/02 06:10:17;;;;;;;1.60;0.70;;;;;;;20.16;26.96;100819.28;5117117;27;20036;-72
2022/05/02 06:12:44;;;;;;;1.02;0.80;;;;;;;20.03;26.39;100821.19;5116635;27;20541;-71
2022/05/02 06:20:42;;;;;;;2.15;0.65;;;;;;;19.97;26.17;100814.19;5109128;27;20089;-72
2022/05/02 06:23:10;;;;;;;1.75;0.65;;;;;;;20.17;26.20;100821.72;5106773;27;20501;-73
2022/05/02 06:25:37;;;;;;;0.80;0.60;;;;;;;20.53;25.32;100825.81;5094472;28;20108;-72
2022/05/02 06:28:04;;;;;;;1.92;0.60;;;;;;;20.61;25.03;100813.75;5099876;28;20042;-73
2022/05/02 06:30:30;;;;;;;1.95;0.82;;;;;;;20.80;24.44;100817.97;5102847;28;20123;-72
2022/05/02 06:32:58;;;;;;;0.97;0.70;;;;;;;21.00;24.05;100817.06;5094574;28;20126;-72
2022/05/02 06:35:30;;;;;;;1.70;0.50;;;;;;;21.15;22.90;100815.56;5104895;28;20043;-73
2022/05/02 06:38:08;;;;;;;1.50;0.68;;;;;;;20.98;23.81;100820.22;5106683;27;20127;-72
2022/05/02 06:40:51;;;;;;;2.90;0.65;;;;;;;20.89;23.74;100819.53;5108034;27;20047;-72
2022/05/02 06:43:28;;;;;;;0.77;0.68;;;;;;;20.66;23.54;100816.34;5104940;28;20097;-72
2022/05/02 06:46:12;;;;;;;2.03;0.32;;;;;;;20.09;23.76;100808.66;5113531;27;20055;-73
2022/05/02 06:48:42;;;;;;;1.30;0.60;;;;;;;19.55;23.98;100808.59;5108588;27;20077;-72
2022/05/02 06:51:23;;;;;;;2.35;0.63;;;;;;;18.91;24.43;100803.16;5107674;28;20032;-73
2022/05/02 06:54:20;;;;;;;0.75;0.60;;;;;;;18.12;25.13;100809.19;5109248;28;20736;-75
2022/05/02 06:56:50;;;;;;;1.77;0.60;;;;;;;18.01;25.14;100810.66;5090697;28;20105;-75
2022/05/02 06:59:24;;;;;;;1.30;0.47;;;;;;;18.11;25.23;100815.09;5099983;28;20517;-75
2022/05/02 07:01:51;;;;;;;0.65;0.50;;;;;;;18.27;25.15;100814.25;5106147;28;20081;-74
2022/05/02 07:04:27;;;;;;;0.75;0.70;;;;;;;18.79;24.70;100813.34;5097417;28;20653;-75
2022/05/02 07:06:59;;;;;;;;;;;;;;;19.03;24.83;100807.19;5097712;28;20047;-76
2022/05/02 07:09:32;;;;;;;0.63;0.50;;;;;;;19.39;24.28;100812.25;5075592;28;19920;-79
2022/05/02 07:12:03;;;;;;;0.55;0.55;;;;;;;19.35;24.44;100816.88;5099446;28;20028;-81
2022/05/02 07:14:56;;;;;;;1.30;0.40;;;;;;;19.15;23.92;100812.88;5109229;28;20463;-76
2022/05/02 07:17:50;;;;;;;3.00;0.60;;;;;;;19.52;24.15;100812.00;5091912;28;20085;-77
2022/05/02 07:20:33;;;;;;;0.50;0.40;;;;;;;20.07;23.65;100818.50;5093182;28;20557;-77
2022/05/02 07:23:23;;;;;;;1.13;0.65;;;;;;;20.46;23.35;100812.44;5092308;28;20064;-74
2022/05/02 07:25:52;;;;;;;2.25;0.40;;;;;;;21.01;22.79;100821.53;5099612;28;20084;-73
2022/05/02 07:28:38;;;;;;;0.50;0.30;;;;;;;21.46;22.68;100813.03;5091962;28;20498;-74
2022/05/02 07:31:04;;;;;;;1.15;0.70;;;;;;;21.46;22.66;100812.22;5059616;28;20448;-73
2022/05/02 07:33:35;;;;;;;3.70;0.80;;;;;;;20.96;23.05;100807.78;5092453;28;20040;-78
2022/05/02 07:36:02;;;;;;;1.27;0.70;;;;;;;20.81;22.51;100805.66;5104927;28;20544;-75
2022/05/02 07:38:34;;;;;;;;;;;;;;;20.32;23.22;100806.34;5113794;28;20042;-73
2022/05/02 07:43:57;;;;;;;2.45;0.95;;;;;;;20.17;23.42;100798.59;5110296;28;20485;-74
2022/05/02 07:46:29;;;;;;;1.40;0.70;;;;;;;20.22;23.47;100794.78;5109396;28;20470;-74
2022/05/02 07:48:57;;;;;;;2.95;0.70;;;;;;;20.03;23.76;100798.06;5092119;28;20036;-74
2022/05/02 07:51:24;;;;;;;4.72;3.13;;;;;;;20.12;24.38;100802.41;5090979;28;20130;-74
2022/05/02 07:53:50;;;;;;;7.30;3.03;;;;;;;20.21;23.91;100795.94;5105158;28;20123;-73
2022/05/02 07:56:18;;;;;;;2.60;0.77;;;;;;;20.17;23.52;100805.00;5099452;28;20448;-75
2022/05/02 07:58:46;;;;;;;1.48;0.70;;;;;;;19.40;24.26;100798.00;5091435;28;20120;-75
2022/05/02 08:01:13;;;;;;;1.48;1.00;;;;;;;18.85;24.81;100798.13;5091165;28;20035;-75
2022/05/02 08:03:38;;;;;;;1.35;0.70;;;;;;;18.38;25.05;100798.84;5104412;28;20201;-74
2022/05/02 08:06:16;;;;;;;3.92;0.98;;;;;;;18.43;25.62;100802.63;5096123;28;20040;-78
2022/05/02 08:09:05;;;;;;;66.95;3.90;;;;;;;18.87;24.92;100791.06;5103935;28;20047;-77
2022/05/02 08:11:54;;;;;;;1.42;0.60;;;;;;;18.56;25.55;100796.84;5096233;28;20118;-77
2022/05/02 08:14:25;;;;;;;3.42;1.98;;;;;;;19.08;25.08;100784.75;5111403;28;20464;-76
2022/05/02 08:17:34;;;;;;;1.90;0.95;;;;;;;19.57;25.11;100795.13;5111286;28;20051;-80
2022/05/02 08:20:09;;;;;;;5.45;3.30;;;;;;;19.52;24.56;100789.75;5047568;28;20068;-78
2022/05/02 08:28:32;;;;;;;1.70;0.73;;;;;;;18.26;25.11;100790.41;5111143;28;20045;-75
2022/05/02 08:31:40;;;;;;;2.55;1.65;;;;;;;18.00;25.99;100781.25;5100411;28;20036;-74
2022/05/02 08:34:34;;;;;;;;;;;;;;;18.09;25.88;100782.09;5083577;28;20044;-74
2022/05/02 08:37:22;;;;;;;2.42;1.60;;;;;;;18.72;25.22;100772.16;5095588;28;20449;-74
2022/05/02 08:39:54;;;;;;;0.70;0.70;;;;;;;19.43;24.69;100769.50;5110839;28;20481;-74
2022/05/02 08:42:41;;;;;;;1.08;0.80;;;;;;;19.96;24.44;100768.00;5101719;28;20036;-74
2022/05/02 08:45:44;;;;;;;0.90;0.70;;;;;;;20.39;24.18;100763.97;5073145;28;20040;-74
2022/05/02 08:48:43;;;;;;;2.15;0.80;;;;;;;20.80;23.63;100757.44;5094673;28;20043;-74
2022/05/02 08:51:31;;;;;;;1.50;0.80;;;;;;;20.35;23.99;100749.09;5106357;27;20497;-74
2022/05/02 08:54:20;;;;;;;1.13;0.63;;;;;;;20.65;23.72;100747.78;5100685;27;20126;-75
2022/05/02 08:57:05;;;;;;;0.50;0.50;;;;;;;20.44;23.64;100753.44;5098197;28;20606;-73
2022/05/02 09:00:07;;;;;;;3.28;1.65;;;;;;;20.14;24.05;100736.03;5078695;28;20415;-75
2022/05/02 09:02:57;;;;;;;5.70;0.95;;;;;;;20.17;24.40;100737.31;5093917;28;20063;-74
2022/05/02 09:05:29;;;;;;;1.48;0.70;;;;;;;20.69;23.84;100734.78;5110226;27;20035;-77
2022/05/02 09:08:10;;;;;;;1.15;0.65;;;;;;;21.04;23.94;100728.75;5112498;28;20036;-74
2022/05/02 09:10:51;;;;;;;0.70;0.60;;;;;;;21.11;23.38;100717.81;5092845;28;20035;-75
2022/05/02 09:13:49;;;;;;;0.82;0.65;;;;;;;21.19;23.25;100722.47;5102231;28;20040;-80
2022/05/02 09:16:29;;;;;;;1.63;0.70;;;;;;;21.38;23.04;100721.88;5092989;28;20082;-80
2022/05/02 09:18:55;;;;;;;3.67;1.15;;;;;;;21.31;22.85;100716.88;5108176;28;20289;-81
2022/05/02 09:21:31;;;;;;;0.80;0.80;;;;;;;20.01;24.38;100714.84;5103036;28;20040;-82
2022/05/02 09:24:18;;;;;;;1.67;0.75;;;;;;;19.05;25.35;100711.16;5093626;28;20048;-79
2022/05/02 09:27:12;;;;;;;0.85;0.52;;;;;;;18.17;25.81;100703.47;5108096;28;20047;-80
2022/05/02 09:29:43;;;;;;;0.77;0.77;;;;;;;17.10;28.13;100701.38;5119032;28;20131;-89
2022/05/02 09:32:15;;;;;;;2.88;0.93;;;;;;;16.38;29.64;100700.94;5110394;28;20557;-75
2022/05/02 09:34:56;;;;;;;2.22;0.90;;;;;;;15.94;30.06;100689.59;5103690;28;20093;-75
2022/05/02 09:37:35;;;;;;;0.68;0.68;;;;;;;15.69;30.26;100690.25;5093752;28;20485;-75
2022/05/02 09:40:09;;;;;;;0.75;0.68;;;;;;;15.30;31.12;100688.13;5110558;28;20036;-75
2022/05/02 09:43:11;;;;;;;1.10;0.88;;;;;;;14.99;31.57;100682.44;5111152;27;20041;-75
2022/05/02 09:51:57;;;;;;;1.45;0.70;;;;;;;14.08;32.16;100660.22;5104395;28;20544;-76
2022/05/02 09:57:17;;;;;;;3.25;2.30;;;;;;;13.58;34.03;100671.00;5105354;28;20039;-75
2022/05/02 09:59:48;;;;;;;1.25;0.80;;;;;;;13.76;32.97;100667.41;5095771;28;20035;-74
2022/05/02 10:02:23;;;;;;;1.38;0.80;;;;;;;13.65;33.13;100663.16;5095975;28;20040;-75
2022/05/02 10:05:22;;;;;;;1.23;0.82;;;;;;;13.80;33.12;100657.38;5081695;28;20040;-76
2022/05/02 10:08:44;;;;;;;0.98;0.90;;;;;;;13.85;32.97;100650.94;5084264;28;20126;-76
2022/05/02 10:11:19;;;;;;;2.50;0.80;;;;;;;13.93;32.80;100650.28;5077360;28;20055;-76
2022/05/02 10:13:57;;;;;;;0.65;0.60;;;;;;;13.97;33.05;100644.97;5099346;28;20524;-75
2022/05/02 10:16:51;;;;;;;1.33;0.93;;;;;;;13.97;33.56;100626.47;5104235;28;20048;-77
2022/05/02 10:19:29;;;;;;;1.52;0.90;;;;;;;14.16;33.13;100627.19;5095740;28;20374;-75
2022/05/02 10:22:09;;;;;;;2.80;1.83;;;;;;;14.29;32.54;100633.03;5106275;28;20039;-75
2022/05/02 10:24:49;;;;;;;3.95;1.30;;;;;;;14.24;33.18;100627.63;5114284;28;20050;-75
2022/05/02 10:27:35;;;;;;;1.02;0.98;;;;;;;14.07;33.47;100622.72;5113681;28;20039;-75
2022/05/02 10:30:12;;;;;;;1.48;0.98;;;;;;;13.94;33.28;100616.03;5114789;28;20046;-75
2022/05/02 10:32:45;;;;;;;1.15;0.70;;;;;;;13.93;33.21;100614.41;5108542;28;20118;-75
2022/05/02 10:35:15;;;;;;;1.98;1.30;;;;;;;13.96;33.46;100616.56;5094247;28;20414;-74
2022/05/02 10:37:43;;;;;;;1.95;1.00;;;;;;;13.92;33.39;100611.97;5094501;28;20120;-76
2022/05/02 10:40:15;;;;;;;2.53;0.80;;;;;;;13.81;34.10;100603.03;5094549;28;20036;-75
2022/05/02 10:42:51;;;;;;;0.55;0.50;;;;;;;13.63;34.17;100609.44;5107994;28;20039;-75
2022/05/02 10:45:17;;;;;;;1.90;0.95;;;;;;;13.55;34.02;100594.41;5114926;28;20468;-75
2022/05/02 10:47:52;;;;;;;0.63;0.57;;;;;;;13.54;34.74;100595.53;5105165;28;20533;-77
2022/05/02 10:50:32;;;;;;;0.70;0.60;;;;;;;13.62;35.02;100581.03;5098092;28;20116;-76
2022/05/02 10:53:23;;;;;;;0.57;0.57;;;;;;;13.75;35.34;100583.03;5093275;28;20491;-72
2022/05/02 10:56:09;;;;;;;1.67;1.13;;;;;;;13.91;34.35;100586.31;5095817;28;20050;-73
2022/05/02 10:58:35;;;;;;;2.67;1.30;;;;;;;14.07;34.33;100579.38;5094614;28;20631;-78
2022/05/02 11:01:29;;;;;;;1.92;1.30;;;;;;;14.01;35.00;100575.06;5087775;28;20095;-76
2022/05/02 11:04:40;;;;;;;1.63;0.90;;;;;;;14.08;34.80;100564.47;5117267;28;20032;-75
2022/05/02 11:07:43;;;;;;;2.20;1.25;;;;;;;14.09;35.00;100568.03;5113031;28;20528;-75
2022/05/02 11:10:11;;;;;;;1.50;1.02;;;;;;;14.04;34.40;100546.88;5114359;28;20123;-75
2022/05/02 11:13:12;;;;;;;2.37;0.70;;;;;;;13.90;35.03;100546.06;5108960;28;20142;-75
2022/05/02 11:15:57;;;;;;;2.17;0.80;;;;;;;13.74;34.94;100542.78;5096032;28;20063;-75
2022/05/02 11:21:40;;;;;;;1.48;0.90;;;;;;;13.57;35.24;100535.09;5093612;28;20541;-72
2022/05/02 11:24:17;;;;;;;1.38;1.05;;;;;;;13.54;35.72;100532.94;5093032;28;20039;-72
2022/05/02 11:26:49;;;;;;;2.90;1.08;;;;;;;13.49;36.00;100534.97;5074911;28;20464;-70
2022/05/02 11:29:30;;;;;;;2.38;1.20;;;;;;;13.37;36.34;100529.13;5093436;28;20426;-74
2022/05/02 11:31:58;;;;;;;1.85;1.10;;;;;;;13.27;36.37;100525.41;5091606;28;20482;-73
2022/05/02 11:34:23;;;;;;;1.05;0.70;;;;;;;13.13;37.27;100526.44;5096393;28;20131;-74
2022/05/02 11:36:53;;;;;;;1.50;1.13;;;;;;;13.12;37.17;100513.81;5094443;28;20048;-76
2022/05/02 11:39:38;;;;;;;1.42;1.17;;;;;;;13.23;37.26;100510.63;5093991;28;20064;-77
2022/05/02 11:42:09;;;;;;;3.25;1.20;;;;;;;13.36;36.88;100503.47;5095568;28;20036;-75
2022/05/02 11:44:53;;;;;;;1.33;0.85;;;;;;;13.41;36.05;100495.13;5093942;28;20035;-76
2022/05/02 11:47:30;;;;;;;1.77;0.90;;;;;;;13.30;36.29;100498.38;5084869;28;20480;-76
2022/05/02 11:50:06;;;;;;;2.50;0.95;;;;;;;13.26;36.94;100495.41;5111836;28;20043;-73
2022/05/02 11:52:35;;;;;;;2.17;1.40;;;;;;;13.30;37.00;100482.66;5108005;28;20409;-73
2022/05/02 11:55:02;;;;;;;1.48;0.90;;;;;;;13.45;37.13;100489.84;5112795;28;20039;-73
2022/05/02 11:57:42;;;;;;;1.00;0.70;;;;;;;13.62;36.86;100486.47;5114623;28;20039;-78
2022/05/02 12:00:15;;;;;;;2.03;0.90;;;;;;;13.72;37.14;100489.06;5098104;28;20122;-78
2022/05/02 12:02:48;;;;;;;1.00;0.82;;;;;;;13.70;36.51;100480.25;5114348;28;20040;-76
2022/05/02 12:05:13;;;;;;;1.33;0.70;;;;;;;13.58;36.63;100473.31;5096254;28;20044;-76
2022/05/02 12:07:40;;;;;;;1.27;1.00;;;;;;;13.51;36.83;100483.91;5093557;28;20105;-77
2022/05/02 12:10:08;;;;;;;1.50;0.88;;;;;;;13.59;37.67;100476.88;5077528;28;20040;-75
2022/05/02 12:12:36;;;;;;;1.40;0.95;;;;;;;13.68;36.96;100469.53;5094911;28;20052;-78
2022/05/02 12:15:04;;;;;;;2.50;1.10;;;;;;;13.81;37.57;100465.97;5076798;28;20399;-76
2022/05/02 12:17:30;;;;;;;3.60;0.90;;;;;;;13.76;37.01;100456.97;5075111;28;20047;-75
2022/05/02 12:19:55;;;;;;;1.73;1.20;;;;;;;13.76;37.11;100455.03;5094754;28;20043;-79
2022/05/02 12:22:26;;;;;;;1.30;1.10;;;;;;;13.79;37.00;100439.81;5095433;28;20391;-78
2022/05/02 12:24:54;;;;;;;2.75;1.52;;;;;;;13.70;36.82;100444.41;5092924;28;20048;-74